Terminal Aerodrome Forecast
Issued by NWS Miami, FL

Home | Current Version | Previous Version | Text Only | Print | Product List | Glossary On
Versions: 1 2 3 4 5 6 7 8 9 10 11 12 13 14 15 16 17 18 19 20 21 22 23 24 25 26
000
FTUS42 KMFL 230957 AAB
TAFPBI
TAF AMD
KPBI 230957Z 2310/2406 14010KT P6SM VCSH FEW018 SCT027 BKN045
     FM231200 11012KT 5SM SHRA SCT020 BKN035 OVC050
     FM240100 25010KT P6SM VCSH FEW015 SCT030 BKN120=

USA.gov is the U.S. government's official web portal to all federal, state and local government web resources and services.